Time;durP1;ratioP1;P1;durP2;ratioP2;P2;SDS_P1;SDS_P2;PMS_P1;PMS_P2;Temp;Humidity;BMP_temperature;BMP_pressure;BME280_temperature;BME280_humidity;BME280_pressure;Samples;Min_cycle;Max_cycle;Signal;HPM_P1;HPM_P2
2023/01/10 00:02:02;;;;;;;0.00;0.00;;;;;;;;;;5036222;28;20222;-81
2023/01/10 00:04:30;;;;;;;0.00;0.00;;;;;;;;;;5035752;28;20220;-81
2023/01/10 00:07:00;;;;;;;0.00;0.00;;;;;;;;;;5035846;28;20318;-81
2023/01/10 00:09:28;;;;;;;0.00;0.00;;;;;;;;;;5028441;28;20235;-81
2023/01/10 00:14:43;;;;;;;0.00;0.00;;;;;;;;;;5055448;28;20195;-81
2023/01/10 00:17:11;;;;;;;0.00;0.00;;;;;;;;;;5054530;28;20231;-81
2023/01/10 00:19:39;;;;;;;0.00;0.00;;;;;;;;;;5047800;28;20716;-81
2023/01/10 00:22:21;;;;;;;0.00;0.00;;;;;;;;;;5042890;28;20286;-80
2023/01/10 00:24:50;;;;;;;0.00;0.00;;;;;;;;;;5055579;28;20207;-81
2023/01/10 00:27:21;;;;;;;0.00;0.00;;;;;;;;;;5055405;28;20314;-81
2023/01/10 00:29:51;;;;;;;0.00;0.00;;;;;;;;;;5039270;28;20212;-81
2023/01/10 00:32:19;;;;;;;0.00;0.00;;;;;;;;;;5025250;28;20196;-81
2023/01/10 00:34:48;;;;;;;0.00;0.00;;;;;;;;;;5035325;28;20711;-81
2023/01/10 00:37:18;;;;;;;0.00;0.00;;;;;;;;;;5035148;28;20252;-81
2023/01/10 00:39:46;;;;;;;0.00;0.00;;;;;;;;;;5035275;28;20239;-81
2023/01/10 00:45:01;;;;;;;0.00;0.00;;;;;;;;;;5055052;28;20586;-80
2023/01/10 00:47:29;;;;;;;0.00;0.00;;;;;;;;;;5055002;28;20685;-81
2023/01/10 00:49:58;;;;;;;0.00;0.00;;;;;;;;;;5046382;28;20224;-81
2023/01/10 00:52:27;;;;;;;0.00;0.00;;;;;;;;;;5034759;28;20260;-81
2023/01/10 00:54:56;;;;;;;0.00;0.00;;;;;;;;;;5034959;28;20242;-81
2023/01/10 00:57:24;;;;;;;0.00;0.00;;;;;;;;;;5035182;28;20651;-81
2023/01/10 00:59:53;;;;;;;0.00;0.00;;;;;;;;;;5034625;28;20230;-81
2023/01/10 01:02:21;;;;;;;0.00;0.00;;;;;;;;;;5034666;28;20229;-81
2023/01/10 01:04:49;;;;;;;0.00;0.00;;;;;;;;;;5034762;28;20242;-81
2023/01/10 01:07:18;;;;;;;0.00;0.00;;;;;;;;;;5034846;28;20228;-81
2023/01/10 01:12:34;;;;;;;0.00;0.00;;;;;;;;;;5034795;28;20200;-81
2023/01/10 01:15:02;;;;;;;0.00;0.00;;;;;;;;;;5034223;28;20210;-81
2023/01/10 01:17:30;;;;;;;0.00;0.00;;;;;;;;;;5034336;28;20255;-81
2023/01/10 01:19:59;;;;;;;0.00;0.00;;;;;;;;;;5021956;28;20761;-81
2023/01/10 01:22:27;;;;;;;0.00;0.00;;;;;;;;;;5014806;28;20204;-81
2023/01/10 01:24:57;;;;;;;0.00;0.00;;;;;;;;;;5028754;28;20203;-81
2023/01/10 01:27:25;;;;;;;0.00;0.00;;;;;;;;;;5034302;28;20713;-81
2023/01/10 01:29:54;;;;;;;0.00;0.00;;;;;;;;;;5033928;28;20628;-80
2023/01/10 01:32:22;;;;;;;0.00;0.00;;;;;;;;;;5034271;28;20617;-80
2023/01/10 01:34:51;;;;;;;0.00;0.00;;;;;;;;;;5034260;28;20238;-81
2023/01/10 01:37:19;;;;;;;0.00;0.00;;;;;;;;;;5034112;28;20224;-81
2023/01/10 01:39:47;;;;;;;0.00;0.00;;;;;;;;;;5023501;28;20237;-81
2023/01/10 01:42:25;;;;;;;0.00;0.00;;;;;;;;;;5014387;28;20232;-81
2023/01/10 01:45:12;;;;;;;0.00;0.00;;;;;;;;;;5014293;28;20205;-81
2023/01/10 01:47:44;;;;;;;0.00;0.00;;;;;;;;;;5014217;28;20266;-81
2023/01/10 01:50:15;;;;;;;0.00;0.00;;;;;;;;;;5027854;28;20207;-81
2023/01/10 01:52:44;;;;;;;0.00;0.00;;;;;;;;;;5033785;28;20239;-81
2023/01/10 01:55:12;;;;;;;0.00;0.00;;;;;;;;;;5033953;28;20572;-81
2023/01/10 01:57:42;;;;;;;0.00;0.00;;;;;;;;;;5033915;28;20595;-81
2023/01/10 02:00:11;;;;;;;0.00;0.00;;;;;;;;;;5033464;28;20266;-81
2023/01/10 02:02:42;;;;;;;0.00;0.00;;;;;;;;;;5033699;28;20638;-81
2023/01/10 02:05:28;;;;;;;0.00;0.00;;;;;;;;;;5033590;28;20188;-81
2023/01/10 02:07:57;;;;;;;0.00;0.00;;;;;;;;;;5033595;28;20263;-81
2023/01/10 02:10:28;;;;;;;0.00;0.00;;;;;;;;;;5033223;28;20270;-81
2023/01/10 02:13:00;;;;;;;0.00;0.00;;;;;;;;;;5033712;28;20222;-81
2023/01/10 02:15:29;;;;;;;0.00;0.00;;;;;;;;;;5033660;28;20609;-81
2023/01/10 02:17:58;;;;;;;0.00;0.00;;;;;;;;;;5033458;28;20223;-81
2023/01/10 02:20:28;;;;;;;0.00;0.00;;;;;;;;;;5035050;28;20203;-81
2023/01/10 02:23:14;;;;;;;0.00;0.00;;;;;;;;;;5033565;28;20249;-81
2023/01/10 02:26:00;;;;;;;0.00;0.00;;;;;;;;;;5033210;28;20223;-81
2023/01/10 02:28:42;;;;;;;0.00;0.00;;;;;;;;;;5033115;28;20235;-81
2023/01/10 02:31:28;;;;;;;0.00;0.00;;;;;;;;;;5033534;28;20208;-81
2023/01/10 02:34:02;;;;;;;0.00;0.00;;;;;;;;;;5032266;28;20208;-82
2023/01/10 02:36:36;;;;;;;0.00;0.00;;;;;;;;;;5033410;28;20183;-81
2023/01/10 02:39:06;;;;;;;0.00;0.00;;;;;;;;;;5031525;28;20203;-81
2023/01/10 02:41:39;;;;;;;0.00;0.00;;;;;;;;;;5016363;28;20227;-81
2023/01/10 02:44:09;;;;;;;0.00;0.00;;;;;;;;;;5018008;28;20192;-81
2023/01/10 02:46:39;;;;;;;0.00;0.00;;;;;;;;;;5017759;28;20715;-81
2023/01/10 02:49:09;;;;;;;0.00;0.00;;;;;;;;;;5020703;28;20207;-81
2023/01/10 02:51:37;;;;;;;0.00;0.00;;;;;;;;;;5037732;28;20206;-81
2023/01/10 02:54:08;;;;;;;0.00;0.00;;;;;;;;;;5037292;28;20208;-81
2023/01/10 02:57:00;;;;;;;0.00;0.00;;;;;;;;;;5036909;28;20192;-82
2023/01/10 02:59:55;;;;;;;0.00;0.00;;;;;;;;;;5028548;28;20205;-81
2023/01/10 03:02:30;;;;;;;0.00;0.00;;;;;;;;;;5017233;28;20626;-80
2023/01/10 03:05:03;;;;;;;0.00;0.00;;;;;;;;;;5017368;28;20562;-81
2023/01/10 03:07:35;;;;;;;0.00;0.00;;;;;;;;;;5017580;28;20224;-81
2023/01/10 03:10:06;;;;;;;0.00;0.00;;;;;;;;;;5030322;28;20224;-81
2023/01/10 03:12:38;;;;;;;0.03;0.03;;;;;;;;;;5037033;28;20192;-81
2023/01/10 03:15:07;;;;;;;0.00;0.00;;;;;;;;;;5036634;28;20196;-80
2023/01/10 03:17:37;;;;;;;0.00;0.00;;;;;;;;;;5036653;28;20224;-81
2023/01/10 03:20:07;;;;;;;0.00;0.00;;;;;;;;;;5036514;28;20684;-81
2023/01/10 03:22:38;;;;;;;0.00;0.00;;;;;;;;;;5036839;28;20692;-81
2023/01/10 03:25:08;;;;;;;0.00;0.00;;;;;;;;;;5036697;28;20269;-81
2023/01/10 03:27:39;;;;;;;0.00;0.00;;;;;;;;;;5036482;28;20224;-81
2023/01/10 03:30:13;;;;;;;0.00;0.00;;;;;;;;;;5036369;28;20244;-81
2023/01/10 03:32:42;;;;;;;0.00;0.00;;;;;;;;;;5036541;28;20235;-81
2023/01/10 03:35:13;;;;;;;0.00;0.00;;;;;;;;;;5036186;28;20232;-81
2023/01/10 03:37:45;;;;;;;0.00;0.00;;;;;;;;;;5036413;28;20227;-80
2023/01/10 03:40:17;;;;;;;0.00;0.00;;;;;;;;;;5036448;28;20278;-80
2023/01/10 03:45:36;;;;;;;0.00;0.00;;;;;;;;;;5036222;28;20587;-81
2023/01/10 03:48:05;;;;;;;0.00;0.00;;;;;;;;;;5035678;28;20220;-80
2023/01/10 03:50:36;;;;;;;0.00;0.00;;;;;;;;;;5031901;28;20227;-80
2023/01/10 03:53:05;;;;;;;0.00;0.00;;;;;;;;;;5034937;28;20517;-81
2023/01/10 03:55:34;;;;;;;0.00;0.00;;;;;;;;;;5036086;28;20200;-81
2023/01/10 03:58:03;;;;;;;0.00;0.00;;;;;;;;;;5036067;28;20646;-80
2023/01/10 04:00:31;;;;;;;0.00;0.00;;;;;;;;;;5035778;28;20261;-81
2023/01/10 04:03:00;;;;;;;0.00;0.00;;;;;;;;;;5035621;28;20235;-81
2023/01/10 04:05:28;;;;;;;0.00;0.00;;;;;;;;;;5036049;28;20200;-81
2023/01/10 04:07:58;;;;;;;0.00;0.00;;;;;;;;;;5036624;28;20219;-81
2023/01/10 04:10:28;;;;;;;0.00;0.00;;;;;;;;;;5055776;28;20273;-80
2023/01/10 04:13:00;;;;;;;0.03;0.03;;;;;;;;;;5055639;28;20244;-81
2023/01/10 04:15:28;;;;;;;0.00;0.00;;;;;;;;;;5041994;28;20625;-80
2023/01/10 04:17:57;;;;;;;0.00;0.00;;;;;;;;;;5035371;28;20252;-81
2023/01/10 04:20:26;;;;;;;0.00;0.00;;;;;;;;;;5027979;28;20195;-81
2023/01/10 04:22:54;;;;;;;0.00;0.00;;;;;;;;;;5055466;28;20289;-81
2023/01/10 04:25:24;;;;;;;0.00;0.00;;;;;;;;;;5055242;28;20215;-81
2023/01/10 04:27:53;;;;;;;0.00;0.00;;;;;;;;;;5055083;28;20235;-80
2023/01/10 04:30:21;;;;;;;0.00;0.00;;;;;;;;;;5052248;28;20215;-81
2023/01/10 04:32:50;;;;;;;0.00;0.00;;;;;;;;;;5035501;28;20211;-81
2023/01/10 04:35:18;;;;;;;0.00;0.00;;;;;;;;;;5035161;28;20203;-80
2023/01/10 04:37:47;;;;;;;0.00;0.00;;;;;;;;;;5035423;28;20266;-81
2023/01/10 04:40:18;;;;;;;0.00;0.00;;;;;;;;;;5035127;28;20231;-81
2023/01/10 04:42:48;;;;;;;0.00;0.00;;;;;;;;;;5035412;28;20184;-79
2023/01/10 04:45:19;;;;;;;0.00;0.00;;;;;;;;;;5035930;28;20250;-78
2023/01/10 04:47:50;;;;;;;0.00;0.00;;;;;;;;;;5035836;28;20270;-79
2023/01/10 04:50:18;;;;;;;0.00;0.00;;;;;;;;;;5035262;28;20234;-79
2023/01/10 04:52:47;;;;;;;0.00;0.00;;;;;;;;;;5035029;28;20235;-79
2023/01/10 04:55:15;;;;;;;0.00;0.00;;;;;;;;;;5035320;28;20226;-79
2023/01/10 04:57:44;;;;;;;0.00;0.00;;;;;;;;;;5035053;28;20615;-79
2023/01/10 05:00:14;;;;;;;0.00;0.00;;;;;;;;;;5035263;28;20199;-79
2023/01/10 05:02:43;;;;;;;0.00;0.00;;;;;;;;;;5035053;28;20236;-79
2023/01/10 05:05:12;;;;;;;0.00;0.00;;;;;;;;;;5034710;28;20199;-79
2023/01/10 05:07:40;;;;;;;0.00;0.00;;;;;;;;;;5034770;28;20718;-79
2023/01/10 05:10:10;;;;;;;0.00;0.00;;;;;;;;;;5034594;28;20204;-79
2023/01/10 05:12:38;;;;;;;0.00;0.00;;;;;;;;;;5034516;28;20278;-79
2023/01/10 05:15:07;;;;;;;0.00;0.00;;;;;;;;;;5034604;28;20234;-79
2023/01/10 05:17:37;;;;;;;0.00;0.00;;;;;;;;;;5034539;28;20262;-79
2023/01/10 05:20:06;;;;;;;0.00;0.00;;;;;;;;;;5034718;28;20204;-79
2023/01/10 05:22:34;;;;;;;0.00;0.00;;;;;;;;;;5034845;28;20211;-79
2023/01/10 05:25:03;;;;;;;0.00;0.00;;;;;;;;;;5034740;28;20338;-79
2023/01/10 05:27:31;;;;;;;0.00;0.00;;;;;;;;;;5034370;28;20250;-79
2023/01/10 05:30:00;;;;;;;0.00;0.00;;;;;;;;;;5034378;28;20265;-79
2023/01/10 05:32:29;;;;;;;0.00;0.00;;;;;;;;;;5034137;28;20728;-79
2023/01/10 05:34:59;;;;;;;0.00;0.00;;;;;;;;;;5034394;28;20215;-79
2023/01/10 05:37:27;;;;;;;0.00;0.00;;;;;;;;;;5034182;28;20563;-79
2023/01/10 05:39:55;;;;;;;0.00;0.00;;;;;;;;;;5034704;28;20200;-79
2023/01/10 05:42:24;;;;;;;0.00;0.00;;;;;;;;;;5034169;28;20242;-79
2023/01/10 05:44:52;;;;;;;0.00;0.00;;;;;;;;;;5034326;28;20261;-79
2023/01/10 05:47:21;;;;;;;0.10;0.10;;;;;;;;;;5034300;28;20270;-79
2023/01/10 05:49:49;;;;;;;0.00;0.00;;;;;;;;;;5034481;28;20623;-79
2023/01/10 05:52:19;;;;;;;0.00;0.00;;;;;;;;;;5034168;28;20220;-79
2023/01/10 05:54:47;;;;;;;0.00;0.00;;;;;;;;;;5034225;28;20254;-79
2023/01/10 05:57:16;;;;;;;0.00;0.00;;;;;;;;;;5034266;28;20224;-79
2023/01/10 05:59:44;;;;;;;0.00;0.00;;;;;;;;;;5033988;28;20303;-78
2023/01/10 06:02:13;;;;;;;0.00;0.00;;;;;;;;;;5033854;28;20235;-79
2023/01/10 06:04:41;;;;;;;0.00;0.00;;;;;;;;;;5033828;28;20198;-79
2023/01/10 06:07:10;;;;;;;0.10;0.10;;;;;;;;;;5033751;28;20266;-79
2023/01/10 06:09:39;;;;;;;0.00;0.00;;;;;;;;;;5034008;28;20232;-79
2023/01/10 06:12:08;;;;;;;0.00;0.00;;;;;;;;;;5033792;28;20230;-79
2023/01/10 06:14:36;;;;;;;0.00;0.00;;;;;;;;;;5033599;28;20614;-79
2023/01/10 06:17:08;;;;;;;0.00;0.00;;;;;;;;;;5033242;28;20269;-80
2023/01/10 06:19:37;;;;;;;0.00;0.00;;;;;;;;;;5033486;28;20633;-79
2023/01/10 06:22:06;;;;;;;0.00;0.00;;;;;;;;;;5034046;28;20230;-79
2023/01/10 06:24:34;;;;;;;0.00;0.00;;;;;;;;;;5033549;28;20204;-79
2023/01/10 06:27:04;;;;;;;0.00;0.00;;;;;;;;;;5033516;28;20234;-79
2023/01/10 06:29:33;;;;;;;0.00;0.00;;;;;;;;;;5033840;28;20188;-79
2023/01/10 06:32:01;;;;;;;0.00;0.00;;;;;;;;;;5033569;28;20232;-79
2023/01/10 06:34:30;;;;;;;0.00;0.00;;;;;;;;;;5033892;28;20246;-79
2023/01/10 06:36:58;;;;;;;0.00;0.00;;;;;;;;;;5033252;28;20227;-79
2023/01/10 06:39:27;;;;;;;0.07;0.07;;;;;;;;;;5033185;28;20261;-79
2023/01/10 06:41:55;;;;;;;0.00;0.00;;;;;;;;;;5033626;28;20239;-79
2023/01/10 06:44:25;;;;;;;0.00;0.00;;;;;;;;;;5033541;28;20203;-79
2023/01/10 06:46:54;;;;;;;0.00;0.00;;;;;;;;;;5034331;28;20277;-79
2023/01/10 06:49:22;;;;;;;0.00;0.00;;;;;;;;;;5033326;28;20235;-79
2023/01/10 06:51:51;;;;;;;0.00;0.00;;;;;;;;;;5033708;28;20274;-79
2023/01/10 06:54:19;;;;;;;0.00;0.00;;;;;;;;;;5032884;28;20243;-79
2023/01/10 06:56:48;;;;;;;0.00;0.00;;;;;;;;;;5033071;28;20262;-78
2023/01/10 06:59:16;;;;;;;0.00;0.00;;;;;;;;;;5033750;28;20639;-78
2023/01/10 07:01:46;;;;;;;0.00;0.00;;;;;;;;;;5033348;28;20234;-79
2023/01/10 07:04:15;;;;;;;0.00;0.00;;;;;;;;;;5033181;28;20215;-79
2023/01/10 07:06:43;;;;;;;0.00;0.00;;;;;;;;;;5033241;28;20638;-80
2023/01/10 07:09:12;;;;;;;0.00;0.00;;;;;;;;;;5033193;28;20261;-80
2023/01/10 07:11:40;;;;;;;0.00;0.00;;;;;;;;;;5040403;28;20289;-80
2023/01/10 07:14:08;;;;;;;0.00;0.00;;;;;;;;;;5033204;28;20200;-80
2023/01/10 07:16:37;;;;;;;0.00;0.00;;;;;;;;;;5032940;28;20665;-80
2023/01/10 07:19:07;;;;;;;0.00;0.00;;;;;;;;;;5033316;28;20581;-80
2023/01/10 07:21:35;;;;;;;0.00;0.00;;;;;;;;;;5032797;28;20207;-79
2023/01/10 07:24:03;;;;;;;0.00;0.00;;;;;;;;;;5032928;28;20231;-80
2023/01/10 07:26:32;;;;;;;0.00;0.00;;;;;;;;;;5034128;28;20211;-80
2023/01/10 07:29:00;;;;;;;0.00;0.00;;;;;;;;;;5036843;28;20628;-79
2023/01/10 07:31:29;;;;;;;0.00;0.00;;;;;;;;;;5036614;28;20661;-79
2023/01/10 07:33:57;;;;;;;0.00;0.00;;;;;;;;;;5036373;28;20269;-79
2023/01/10 07:36:27;;;;;;;0.00;0.00;;;;;;;;;;5036648;28;20247;-79
2023/01/10 07:38:55;;;;;;;0.00;0.00;;;;;;;;;;5036647;28;20204;-79
2023/01/10 07:41:24;;;;;;;0.00;0.00;;;;;;;;;;5036129;28;20203;-78
2023/01/10 07:43:52;;;;;;;0.00;0.00;;;;;;;;;;5036381;28;20235;-79
2023/01/10 07:46:20;;;;;;;0.00;0.00;;;;;;;;;;5035972;28;20203;-79
2023/01/10 07:48:49;;;;;;;0.00;0.00;;;;;;;;;;5036493;28;20204;-80
2023/01/10 07:51:17;;;;;;;0.00;0.00;;;;;;;;;;5036122;28;20211;-80
2023/01/10 07:53:47;;;;;;;0.00;0.00;;;;;;;;;;5036168;28;20219;-80
2023/01/10 07:56:15;;;;;;;0.00;0.00;;;;;;;;;;5036015;28;20246;-79
2023/01/10 07:58:45;;;;;;;0.00;0.00;;;;;;;;;;5035901;28;20224;-79
2023/01/10 08:01:13;;;;;;;0.10;0.10;;;;;;;;;;5036077;28;20290;-79
2023/01/10 08:03:41;;;;;;;0.00;0.00;;;;;;;;;;5051891;28;20207;-79
2023/01/10 08:06:11;;;;;;;0.00;0.00;;;;;;;;;;5055924;28;20217;-79
2023/01/10 08:08:39;;;;;;;0.00;0.00;;;;;;;;;;5056006;28;20223;-79
2023/01/10 08:11:09;;;;;;;0.00;0.00;;;;;;;;;;5055589;28;20294;-79
2023/01/10 08:13:38;;;;;;;0.00;0.00;;;;;;;;;;5055801;28;20257;-80
2023/01/10 08:16:07;;;;;;;0.00;0.00;;;;;;;;;;5055909;28;20210;-79
2023/01/10 08:18:37;;;;;;;0.00;0.00;;;;;;;;;;5049558;28;20224;-80
2023/01/10 08:21:05;;;;;;;0.00;0.00;;;;;;;;;;5036006;28;20199;-79
2023/01/10 08:23:34;;;;;;;0.00;0.00;;;;;;;;;;5035442;28;20203;-79
2023/01/10 08:26:03;;;;;;;0.00;0.00;;;;;;;;;;5035290;28;20204;-80
2023/01/10 08:28:32;;;;;;;0.00;0.00;;;;;;;;;;5035587;28;20224;-79
2023/01/10 08:31:05;;;;;;;0.00;0.00;;;;;;;;;;5035464;28;20199;-79
2023/01/10 08:33:34;;;;;;;0.00;0.00;;;;;;;;;;5035550;28;20209;-79
2023/01/10 08:36:02;;;;;;;0.10;0.10;;;;;;;;;;5035145;28;20207;-79
2023/01/10 08:38:30;;;;;;;0.00;0.00;;;;;;;;;;5034710;28;20230;-79
2023/01/10 08:40:59;;;;;;;0.00;0.00;;;;;;;;;;5035625;28;20293;-80
2023/01/10 08:43:27;;;;;;;0.00;0.00;;;;;;;;;;5035366;28;20204;-79
2023/01/10 08:45:57;;;;;;;0.00;0.00;;;;;;;;;;5035126;28;20255;-79
2023/01/10 08:48:25;;;;;;;0.00;0.00;;;;;;;;;;5035269;28;20255;-79
2023/01/10 08:50:54;;;;;;;0.00;0.00;;;;;;;;;;5035076;28;20204;-80
2023/01/10 08:53:22;;;;;;;0.00;0.00;;;;;;;;;;5035043;28;20310;-79
2023/01/10 08:55:51;;;;;;;0.00;0.00;;;;;;;;;;5034925;28;20243;-79
2023/01/10 08:58:19;;;;;;;0.00;0.00;;;;;;;;;;5034765;28;20228;-79
2023/01/10 09:00:48;;;;;;;0.00;0.00;;;;;;;;;;5034824;28;20253;-80
2023/01/10 09:03:18;;;;;;;0.00;0.00;;;;;;;;;;5034538;28;20204;-79
2023/01/10 09:05:47;;;;;;;0.00;0.00;;;;;;;;;;5035092;28;20271;-79
2023/01/10 09:08:15;;;;;;;0.00;0.00;;;;;;;;;;5035001;28;20291;-80
2023/01/10 09:10:44;;;;;;;0.00;0.00;;;;;;;;;;5034725;28;20318;-79
2023/01/10 09:13:12;;;;;;;0.10;0.10;;;;;;;;;;5034501;28;20660;-80
2023/01/10 09:15:42;;;;;;;0.00;0.00;;;;;;;;;;5034358;28;20216;-80
2023/01/10 09:18:13;;;;;;;0.00;0.00;;;;;;;;;;5034593;28;20652;-80
2023/01/10 09:20:43;;;;;;;0.00;0.00;;;;;;;;;;5034481;28;20188;-79
2023/01/10 09:23:16;;;;;;;0.00;0.00;;;;;;;;;;5034763;28;20196;-79
2023/01/10 09:25:45;;;;;;;0.00;0.00;;;;;;;;;;5034623;28;20200;-79
2023/01/10 09:28:13;;;;;;;0.00;0.00;;;;;;;;;;5034207;28;20227;-80
2023/01/10 09:30:42;;;;;;;0.00;0.00;;;;;;;;;;5034633;28;20661;-79
2023/01/10 09:33:10;;;;;;;0.00;0.00;;;;;;;;;;5034599;28;20255;-79
2023/01/10 09:35:40;;;;;;;0.00;0.00;;;;;;;;;;5034624;28;20253;-79
2023/01/10 09:38:13;;;;;;;0.00;0.00;;;;;;;;;;5034395;28;20286;-79
2023/01/10 09:40:47;;;;;;;0.00;0.00;;;;;;;;;;5049414;28;20237;-79
2023/01/10 09:43:17;;;;;;;0.00;0.00;;;;;;;;;;5054368;28;20629;-80
2023/01/10 09:45:49;;;;;;;0.00;0.00;;;;;;;;;;5054228;28;20191;-79
2023/01/10 09:48:21;;;;;;;0.00;0.00;;;;;;;;;;5054372;28;20766;-79
2023/01/10 09:50:58;;;;;;;0.03;0.03;;;;;;;;;;5054025;28;20603;-79
2023/01/10 09:53:30;;;;;;;0.00;0.00;;;;;;;;;;5053758;28;20211;-79
2023/01/10 09:55:59;;;;;;;0.00;0.00;;;;;;;;;;5053878;28;20187;-79
2023/01/10 09:58:30;;;;;;;0.00;0.00;;;;;;;;;;5054543;28;20231;-79
2023/01/10 10:01:00;;;;;;;0.00;0.00;;;;;;;;;;5053738;28;20278;-79
2023/01/10 10:03:32;;;;;;;0.00;0.00;;;;;;;;;;5053577;28;20270;-79
2023/01/10 10:06:01;;;;;;;0.00;0.00;;;;;;;;;;5053784;28;20191;-79
2023/01/10 10:08:41;;;;;;;0.00;0.00;;;;;;;;;;5053756;28;20218;-79
2023/01/10 10:11:22;;;;;;;0.00;0.00;;;;;;;;;;5053491;28;20218;-79
2023/01/10 10:13:54;;;;;;;0.00;0.00;;;;;;;;;;5053791;28;20211;-79
2023/01/10 10:16:29;;;;;;;0.00;0.00;;;;;;;;;;5053698;28;20632;-79
2023/01/10 10:19:03;;;;;;;0.00;0.00;;;;;;;;;;5053808;28;20226;-80
2023/01/10 10:21:36;;;;;;;0.00;0.00;;;;;;;;;;5053582;28;20218;-80
2023/01/10 10:24:23;;;;;;;0.00;0.00;;;;;;;;;;5053621;28;20551;-79
2023/01/10 10:26:57;;;;;;;0.00;0.00;;;;;;;;;;5053598;28;20222;-79
2023/01/10 10:29:35;;;;;;;0.00;0.00;;;;;;;;;;5053583;28;20241;-79
2023/01/10 10:32:24;;;;;;;0.00;0.00;;;;;;;;;;5053180;28;20245;-79
2023/01/10 10:34:54;;;;;;;0.00;0.00;;;;;;;;;;5050066;28;20231;-79
2023/01/10 10:37:25;;;;;;;0.00;0.00;;;;;;;;;;5053161;28;20729;-79
2023/01/10 10:39:56;;;;;;;0.00;0.00;;;;;;;;;;5053544;28;20207;-79
2023/01/10 10:42:29;;;;;;;0.00;0.00;;;;;;;;;;5053334;28;20231;-79
2023/01/10 10:45:00;;;;;;;0.00;0.00;;;;;;;;;;5053233;28;20226;-79
2023/01/10 10:47:31;;;;;;;0.00;0.00;;;;;;;;;;5053351;28;20261;-80
2023/01/10 10:50:07;;;;;;;0.00;0.00;;;;;;;;;;5053398;28;20532;-79
2023/01/10 10:52:36;;;;;;;0.00;0.00;;;;;;;;;;5053654;28;20183;-79
2023/01/10 10:55:07;;;;;;;0.00;0.00;;;;;;;;;;5053181;28;20700;-80
2023/01/10 10:57:38;;;;;;;0.00;0.00;;;;;;;;;;5053286;28;20296;-79
2023/01/10 11:00:21;;;;;;;0.00;0.00;;;;;;;;;;5052874;28;20187;-80
2023/01/10 11:02:52;;;;;;;0.00;0.00;;;;;;;;;;5056059;28;20264;-80
2023/01/10 11:05:21;;;;;;;0.00;0.00;;;;;;;;;;5057057;28;20207;-80
2023/01/10 11:07:50;;;;;;;0.00;0.00;;;;;;;;;;5056865;28;20280;-79
2023/01/10 11:10:35;;;;;;;0.00;0.00;;;;;;;;;;5057001;28;20276;-80
2023/01/10 11:13:05;;;;;;;0.00;0.00;;;;;;;;;;5056697;28;20189;-80
2023/01/10 11:15:38;;;;;;;0.00;0.00;;;;;;;;;;5057047;28;20254;-80
2023/01/10 11:18:07;;;;;;;0.00;0.00;;;;;;;;;;5056626;28;20276;-80
2023/01/10 11:20:35;;;;;;;0.00;0.00;;;;;;;;;;5056767;28;20261;-80
2023/01/10 11:23:04;;;;;;;0.00;0.00;;;;;;;;;;5057074;28;20645;-80
2023/01/10 11:25:34;;;;;;;0.00;0.00;;;;;;;;;;5056681;28;20252;-80
2023/01/10 11:28:05;;;;;;;0.00;0.00;;;;;;;;;;5041763;28;20257;-80
2023/01/10 11:30:35;;;;;;;0.00;0.00;;;;;;;;;;5036461;28;20212;-80
2023/01/10 11:33:05;;;;;;;0.00;0.00;;;;;;;;;;5036509;28;20718;-80
2023/01/10 11:35:35;;;;;;;0.00;0.00;;;;;;;;;;5036525;28;20307;-80
2023/01/10 11:38:05;;;;;;;0.00;0.00;;;;;;;;;;5036567;28;20263;-80
2023/01/10 11:40:37;;;;;;;0.00;0.00;;;;;;;;;;5036480;28;20650;-80
2023/01/10 11:43:21;;;;;;;0.00;0.00;;;;;;;;;;5036634;28;20212;-80
2023/01/10 11:45:53;;;;;;;0.00;0.00;;;;;;;;;;5035968;28;20227;-80
2023/01/10 11:48:23;;;;;;;0.00;0.00;;;;;;;;;;5036311;28;20241;-80
2023/01/10 11:51:18;;;;;;;0.00;0.00;;;;;;;;;;5036219;28;20239;-80
2023/01/10 11:53:47;;;;;;;0.00;0.00;;;;;;;;;;5036064;28;20222;-79
2023/01/10 11:56:24;;;;;;;0.00;0.00;;;;;;;;;;5055802;28;20262;-80
2023/01/10 11:58:53;;;;;;;0.00;0.00;;;;;;;;;;5056155;28;20218;-80
2023/01/10 12:01:26;;;;;;;0.00;0.00;;;;;;;;;;5048930;28;20231;-80
2023/01/10 12:03:55;;;;;;;0.00;0.00;;;;;;;;;;5035936;28;20254;-80
2023/01/10 12:06:24;;;;;;;0.00;0.00;;;;;;;;;;5035584;28;20228;-80
2023/01/10 12:08:55;;;;;;;0.00;0.00;;;;;;;;;;5036030;28;20680;-81
2023/01/10 12:11:26;;;;;;;0.00;0.00;;;;;;;;;;5034266;28;20207;-80
2023/01/10 12:13:55;;;;;;;0.00;0.00;;;;;;;;;;5014913;28;20235;-80
2023/01/10 12:16:25;;;;;;;0.00;0.00;;;;;;;;;;5015983;28;20274;-79
2023/01/10 12:18:54;;;;;;;0.00;0.00;;;;;;;;;;5016118;28;20569;-79
2023/01/10 12:21:26;;;;;;;0.00;0.00;;;;;;;;;;5015715;28;20247;-81
2023/01/10 12:23:57;;;;;;;0.00;0.00;;;;;;;;;;5015712;28;20216;-80
2023/01/10 12:26:27;;;;;;;0.00;0.00;;;;;;;;;;5015586;28;20188;-79
2023/01/10 12:28:57;;;;;;;0.00;0.00;;;;;;;;;;5015803;28;20557;-80
2023/01/10 12:31:26;;;;;;;0.00;0.00;;;;;;;;;;5016029;28;20284;-80
2023/01/10 12:33:57;;;;;;;0.00;0.00;;;;;;;;;;5015752;28;20235;-81
2023/01/10 12:36:32;;;;;;;0.00;0.00;;;;;;;;;;5015333;28;20255;-80
2023/01/10 12:39:06;;;;;;;0.00;0.00;;;;;;;;;;5015419;28;20184;-80
2023/01/10 12:44:44;;;;;;;0.00;0.00;;;;;;;;;;5013277;28;20260;-81
2023/01/10 12:47:20;;;;;;;0.00;0.00;;;;;;;;;;5012734;28;20733;-81
2023/01/10 12:49:51;;;;;;;0.00;0.00;;;;;;;;;;5014501;28;20207;-80
2023/01/10 12:52:25;;;;;;;0.00;0.00;;;;;;;;;;5015244;28;20236;-80
2023/01/10 12:54:53;;;;;;;0.00;0.00;;;;;;;;;;5015265;28;20271;-80
2023/01/10 12:57:26;;;;;;;0.00;0.00;;;;;;;;;;5014977;28;20224;-80
2023/01/10 12:59:55;;;;;;;0.00;0.00;;;;;;;;;;5015342;28;20704;-80
2023/01/10 13:02:25;;;;;;;0.00;0.00;;;;;;;;;;5015009;28;20236;-80
2023/01/10 13:04:57;;;;;;;0.00;0.00;;;;;;;;;;5014949;28;20185;-80
2023/01/10 13:07:28;;;;;;;0.00;0.00;;;;;;;;;;5014740;28;20225;-80
2023/01/10 13:09:56;;;;;;;0.00;0.00;;;;;;;;;;5014830;28;20192;-80
2023/01/10 13:12:32;;;;;;;0.00;0.00;;;;;;;;;;5014961;28;20641;-79
2023/01/10 13:15:04;;;;;;;0.00;0.00;;;;;;;;;;5019764;28;20192;-80
2023/01/10 13:17:37;;;;;;;0.00;0.00;;;;;;;;;;5035091;28;20227;-81
2023/01/10 13:20:24;;;;;;;0.00;0.00;;;;;;;;;;5034153;28;20214;-81
2023/01/10 13:22:55;;;;;;;0.00;0.00;;;;;;;;;;5034404;28;20228;-81
2023/01/10 13:25:25;;;;;;;0.07;0.07;;;;;;;;;;5033924;28;20230;-79
2023/01/10 13:27:58;;;;;;;0.10;0.10;;;;;;;;;;5034458;28;20595;-80
2023/01/10 13:30:28;;;;;;;0.00;0.00;;;;;;;;;;5034486;28;20599;-80
2023/01/10 13:33:01;;;;;;;0.00;0.00;;;;;;;;;;5034461;28;20207;-80
2023/01/10 13:35:37;;;;;;;0.00;0.00;;;;;;;;;;5034365;28;20212;-80
2023/01/10 13:38:07;;;;;;;0.00;0.00;;;;;;;;;;5033806;28;20223;-80
2023/01/10 13:40:36;;;;;;;0.00;0.00;;;;;;;;;;5034272;28;20208;-79
2023/01/10 13:43:22;;;;;;;0.00;0.00;;;;;;;;;;5034515;28;20661;-80
2023/01/10 13:46:18;;;;;;;0.00;0.00;;;;;;;;;;5034268;28;20199;-81
2023/01/10 13:49:16;;;;;;;0.00;0.00;;;;;;;;;;5034203;28;20234;-80
2023/01/10 13:52:00;;;;;;;0.10;0.10;;;;;;;;;;5033620;28;20200;-80
2023/01/10 13:54:29;;;;;;;0.00;0.00;;;;;;;;;;5032850;28;20203;-81
2023/01/10 13:56:58;;;;;;;0.00;0.00;;;;;;;;;;5032960;28;20711;-80
2023/01/10 14:02:34;;;;;;;0.00;0.00;;;;;;;;;;4977834;28;20220;-80
2023/01/10 14:05:04;;;;;;;0.10;0.10;;;;;;;;;;5033763;28;20200;-79
2023/01/10 14:07:35;;;;;;;0.00;0.00;;;;;;;;;;5033035;28;20216;-80
2023/01/10 14:10:04;;;;;;;0.00;0.00;;;;;;;;;;5034124;28;20192;-81
2023/01/10 14:12:34;;;;;;;0.00;0.00;;;;;;;;;;5034941;28;20258;-79
2023/01/10 14:15:05;;;;;;;0.00;0.00;;;;;;;;;;5033295;28;20188;-81
2023/01/10 14:17:36;;;;;;;0.00;0.00;;;;;;;;;;5033791;28;20309;-80
2023/01/10 14:20:15;;;;;;;0.00;0.00;;;;;;;;;;5033712;28;20625;-80
2023/01/10 14:22:48;;;;;;;0.00;0.00;;;;;;;;;;5034302;28;20600;-80
2023/01/10 14:25:19;;;;;;;0.00;0.00;;;;;;;;;;5033492;28;20216;-80
2023/01/10 14:27:49;;;;;;;0.00;0.00;;;;;;;;;;5033510;28;20223;-80
2023/01/10 14:30:19;;;;;;;0.00;0.00;;;;;;;;;;5033758;28;20211;-80
2023/01/10 14:32:51;;;;;;;0.00;0.00;;;;;;;;;;5034028;28;20645;-80
2023/01/10 14:35:21;;;;;;;0.00;0.00;;;;;;;;;;5033677;28;20555;-80
2023/01/10 14:37:53;;;;;;;0.00;0.00;;;;;;;;;;5032410;28;20224;-80
2023/01/10 14:40:24;;;;;;;0.00;0.00;;;;;;;;;;5033334;28;20265;-80
2023/01/10 14:42:57;;;;;;;0.00;0.00;;;;;;;;;;5033541;28;20219;-81
2023/01/10 14:45:31;;;;;;;0.00;0.00;;;;;;;;;;5033436;28;20683;-81
2023/01/10 14:48:18;;;;;;;0.00;0.00;;;;;;;;;;5033502;28;20403;-80
2023/01/10 14:50:46;;;;;;;0.00;0.00;;;;;;;;;;5033040;28;20183;-80
2023/01/10 14:53:25;;;;;;;0.00;0.00;;;;;;;;;;5033261;28;20727;-81
2023/01/10 14:55:53;;;;;;;0.00;0.00;;;;;;;;;;5033328;28;20184;-80
2023/01/10 14:58:22;;;;;;;0.00;0.00;;;;;;;;;;5033448;28;20584;-80
2023/01/10 15:00:51;;;;;;;0.00;0.00;;;;;;;;;;5033422;28;20203;-80
2023/01/10 15:03:23;;;;;;;0.00;0.00;;;;;;;;;;5032791;28;20626;-80
2023/01/10 15:05:53;;;;;;;0.00;0.00;;;;;;;;;;5032754;28;20231;-80
2023/01/10 15:08:22;;;;;;;0.00;0.00;;;;;;;;;;5033147;28;20224;-80
2023/01/10 15:10:52;;;;;;;0.00;0.00;;;;;;;;;;5032981;28;20570;-80
2023/01/10 15:13:23;;;;;;;0.00;0.00;;;;;;;;;;5033061;28;20216;-80
2023/01/10 15:15:52;;;;;;;0.00;0.00;;;;;;;;;;5033101;28;20548;-80
2023/01/10 15:18:32;;;;;;;0.20;0.10;;;;;;;;;;5032828;28;20259;-80
2023/01/10 15:21:00;;;;;;;0.00;0.00;;;;;;;;;;5033120;28;20606;-80
2023/01/10 15:23:34;;;;;;;0.00;0.00;;;;;;;;;;5033093;28;20200;-80